Latest Weather Observations for Mount Hotham Airport

IDV60801

Issued at 5:31 pm EST Wednesday 4 May 2016 (issued every 30 minutes, with the page automatically refreshed every 10 minutes)

About weather observations | Map of weather stations | Latest weather observations for VIC | Other Formats
Station Details ID: 083055 Name: MOUNT HOTHAM AIRPORT Lat: -37.05 Lon: 147.33 Height: 1295.4 m
Data from the previous 72 hours. | See also: Recent months at Mount Hotham Airport
Date/Time
EST
Temp
°C
App
Temp
°C
Dew
Point
Rel
Hum
%
Delta-T
°C
Wind Press
QNH
hPa
Press
MSL
hPa
Rain
since 9 am
mm
Dir
 
Spd
km/h
Gust
km/h
Spd
kts
Gust
kts
04/05:30pm 4.3 -0.1 0.1 74 1.7 NNW 13 24 7 13 1017.2 - 0.0
04/05:00pm 5.2 0.7 0.0 69 2.2 NW 13 20 7 11 1017.0 - 0.0
04/04:30pm 6.3 2.3 0.2 65 2.6 NNW 11 17 6 9 1016.5 - 0.0
04/04:00pm 6.5 0.9 0.2 64 2.7 NNW 19 26 10 14 1016.3 - 0.0
04/03:30pm 7.7 2.5 0.0 58 3.3 NW 17 24 9 13 1015.9 - 0.0
04/03:00pm 8.4 2.7 0.4 57 3.5 NW 20 28 11 15 1015.7 1016.8 0.0
04/02:30pm 9.3 4.5 0.5 54 3.9 NW 15 24 8 13 1015.3 - 0.0
04/02:00pm 9.0 3.1 -1.1 49 4.3 NW 20 28 11 15 1014.9 - 0.0
04/01:30pm 9.5 4.7 -0.1 51 4.2 NW 15 20 8 11 1014.8 - 0.0
04/01:00pm 8.4 3.1 -0.9 52 3.9 NW 17 24 9 13 1014.8 - 0.0
04/12:30pm 8.9 3.1 0.1 54 3.8 NNW 20 26 11 14 1015.3 - 0.0
04/12:00pm 8.9 3.6 -0.9 50 4.1 WNW 17 22 9 12 1015.5 1016.6 0.0
04/11:30am 8.5 3.0 -1.9 48 4.3 NW 17 24 9 13 1015.5 - 0.0
04/11:00am 8.3 2.8 -1.8 49 4.2 NNW 17 22 9 12 1015.4 - 0.0
04/10:30am 7.8 3.2 -0.9 54 3.6 W 13 20 7 11 1015.4 - 0.0
04/10:00am 7.3 2.4 -0.6 57 3.3 NW 15 24 8 13 1015.3 - 0.0
04/09:30am 6.5 2.5 0.2 64 2.7 NW 11 19 6 10 1015.2 - 0.0
04/09:00am 5.9 1.4 0.0 66 2.5 WNW 13 17 7 9 1014.9 1016.0 1.2
04/08:30am 5.0 1.4 0.6 73 1.9 N 9 15 5 8 1014.4 - 1.2
04/08:00am 3.7 -0.8 -0.1 76 1.6 WNW 13 19 7 10 1014.4 - 1.2
04/07:30am 3.2 -1.2 0.4 82 1.2 W 13 20 7 11 1014.3 - 1.2
04/07:00am 1.6 -2.6 -0.6 85 0.9 WNW 11 17 6 9 1013.2 - 1.2
04/06:30am 3.1 -0.2 0.2 81 1.2 NW 7 13 4 7 1012.8 - 1.2
04/06:00am 4.0 0.0 0.7 79 1.4 W 11 19 6 10 1012.7 1013.6 1.2
04/05:30am 4.2 0.7 1.4 82 1.2 W 9 17 5 9 1012.0 - 1.2
04/05:00am 4.1 -1.3 1.3 82 1.2 W 19 26 10 14 1011.1 - 1.2
04/04:45am 4.2 -2.9 1.1 80 1.3 WNW 28 37 15 20 1010.6 - 1.2
04/04:44am 4.2 -2.9 1.1 80 1.3 WNW 28 37 15 20 1010.6 - 1.2
04/04:30am 3.7 0.2 1.1 83 1.1 W 9 17 5 9 1010.3 - 1.2
04/04:00am 3.9 -0.4 0.9 81 1.3 WNW 13 22 7 12 1009.8 - 1.2
04/03:30am 3.6 -0.7 0.7 81 1.2 W 13 20 7 11 1009.7 - 1.2
04/03:00am 4.7 1.0 2.2 84 1.1 NW 11 19 6 10 1009.7 1010.6 1.2
04/02:30am 5.8 0.6 3.5 85 1.0 WNW 20 30 11 16 1009.5 - 1.2
04/02:14am 6.2 1.5 5.3 94 0.4 WNW 19 37 10 20 1009.6 - 1.2
04/02:13am 6.2 1.3 5.3 94 0.4 WNW 20 37 11 20 1009.6 - 1.2
04/02:00am 6.4 1.8 5.4 93 0.5 W 19 30 10 16 1009.1 - 1.2
04/01:56am 6.6 2.0 5.6 93 0.5 W 19 30 10 16 1009.1 - 1.2
04/01:55am 6.6 2.0 5.6 93 0.5 W 19 30 10 16 1009.1 - 1.2
04/01:30am 7.0 3.6 6.1 94 0.4 NW 13 24 7 13 1008.7 - 1.2
04/01:00am 7.0 4.0 5.8 92 0.6 WNW 11 19 6 10 1008.4 - 1.0
04/12:30am 7.3 3.6 6.1 92 0.6 NW 15 28 8 15 1008.0 - 0.8
04/12:00am 7.4 3.3 6.0 91 0.7 WNW 17 30 9 16 1008.0 1008.8 0.6
 
Date/Time
EST
Temp
°C
App
Temp
°C
Dew
Point
Rel
Hum
%
Delta-T
°C
Wind Press
QNH
hPa
Press
MSL
hPa
Rain
since 9 am
mm
Dir
 
Spd
km/h
Gust
km/h
Spd
kts
Gust
kts
03/11:30pm 7.4 4.1 6.2 92 0.6 WNW 13 24 7 13 1007.7 - 0.4
03/11:00pm 7.4 2.9 6.2 92 0.6 WNW 19 33 10 18 1007.7 - 0.4
03/10:33pm 7.7 1.4 5.8 88 0.9 WNW 28 48 15 26 1007.5 - 0.4
03/10:30pm 7.7 1.8 5.7 87 1.0 WNW 26 48 14 26 1007.3 - 0.4
03/10:16pm 7.7 1.4 5.5 86 1.1 WNW 28 52 15 28 1007.5 - 0.4
03/10:00pm 7.8 2.1 4.9 82 1.4 WNW 24 48 13 26 1007.3 - 0.4
03/09:30pm 7.4 0.1 4.5 82 1.4 WNW 32 57 17 31 1007.0 - 0.4
03/09:00pm 7.4 0.0 5.2 86 1.1 WNW 33 56 18 30 1006.3 1007.1 0.4
03/08:34pm 7.5 -0.9 5.8 89 0.8 WNW 39 63 21 34 1006.3 - 0.4
03/08:33pm 7.5 -0.9 5.8 89 0.8 WNW 39 63 21 34 1006.3 - 0.4
03/08:30pm 7.5 -0.8 6.1 91 0.7 WNW 39 67 21 36 1006.3 - 0.4
03/08:16pm 7.4 1.3 6.5 94 0.4 WNW 28 57 15 31 1006.4 - 0.2
03/08:15pm 7.4 1.3 6.5 94 0.4 WNW 28 57 15 31 1006.4 - 0.2
03/08:14pm 7.5 1.4 6.6 94 0.4 WNW 28 57 15 31 1006.6 - 0.2
03/08:13pm 7.5 1.4 6.6 94 0.4 WNW 28 57 15 31 1006.6 - 0.2
03/08:09pm 7.4 1.3 6.5 94 0.4 WNW 28 41 15 22 1006.3 - 0.2
03/08:08pm 7.4 1.3 6.5 94 0.4 WNW 28 41 15 22 1006.3 - 0.2
03/08:00pm 7.5 1.4 6.6 94 0.4 WNW 28 44 15 24 1006.2 - 0.0
03/07:58pm 7.5 1.4 6.6 94 0.4 WNW 28 44 15 24 1006.2 - 0.0
03/07:57pm 7.5 1.4 6.6 94 0.4 WNW 28 50 15 27 1006.2 - 0.0
03/07:30pm 7.6 -2.5 5.9 89 0.8 WNW 48 69 26 37 1005.3 - 0.0
03/07:00pm 7.5 -3.4 5.6 88 0.9 NW 52 85 28 46 1004.5 - 0.0
03/06:30pm 7.5 -2.7 5.0 84 1.2 NW 48 72 26 39 1004.1 - 0.0
03/06:17pm 7.7 -2.3 4.3 79 1.6 NW 46 76 25 41 1003.9 - 0.0
03/06:16pm 7.7 -2.3 4.3 79 1.6 NW 46 76 25 41 1003.9 - 0.0
03/06:00pm 7.8 0.2 4.0 77 1.8 NW 33 56 18 30 1003.6 1004.3 0.0
03/05:31pm 7.8 -1.8 3.3 73 2.1 NW 43 61 23 33 1003.2 - 0.0
03/05:30pm 7.9 -1.9 3.4 73 2.1 NW 44 61 24 33 1002.8 - 0.0
03/05:00pm 8.4 -2.2 3.1 69 2.4 NW 48 83 26 45 1002.5 - 0.0
03/04:30pm 8.8 -1.9 2.6 65 2.8 NW 48 78 26 42 1001.8 - 0.0
03/04:00pm 9.4 -0.3 2.7 63 3.1 NW 43 74 23 40 1001.6 - 0.0
03/03:30pm 9.6 -1.5 2.7 62 3.2 NW 50 82 27 44 1002.0 - 0.0
03/03:00pm 9.8 -0.5 2.6 61 3.3 NW 46 93 25 50 1002.5 1003.0 0.0
03/02:53pm 9.9 0.0 2.7 61 3.3 NNW 44 93 24 50 1002.4 - 0.0
03/02:52pm 9.9 0.0 2.7 61 3.3 NNW 44 93 24 50 1002.4 - 0.0
03/02:30pm 10.2 0.6 3.3 62 3.2 NNW 43 69 23 37 1002.6 - 0.0
03/02:00pm 9.7 -1.0 2.3 60 3.4 NNW 48 80 26 43 1002.9 - 0.0
03/01:30pm 10.1 0.2 2.9 61 3.4 NW 44 69 24 37 1003.4 - 0.0
03/01:00pm 10.0 0.0 2.4 59 3.5 NW 44 69 24 37 1003.3 - 0.0
03/12:30pm 9.9 0.0 2.5 60 3.4 NNW 44 76 24 41 1003.5 - 0.0
03/12:00pm 9.1 -2.8 2.0 61 3.2 NNW 54 89 29 48 1003.9 1004.6 0.0
03/11:56am 9.1 -2.4 2.2 62 3.1 NNW 52 89 28 48 1004.1 - 0.0
03/11:55am 9.1 -2.4 2.2 62 3.1 NNW 52 89 28 48 1004.1 - 0.0
03/11:30am 8.6 -1.4 2.0 63 3.0 NNW 44 69 24 37 1004.9 - 0.0
03/11:16am 8.4 0.5 2.0 64 2.9 NNW 33 80 18 43 1005.2 - 0.0
03/11:15am 8.4 0.5 2.0 64 2.9 NNW 33 80 18 43 1005.2 - 0.0
03/11:00am 8.1 0.2 2.4 67 2.6 NNW 33 61 18 33 1005.9 - 0.0
03/10:30am 7.6 -0.4 1.9 67 2.5 NNW 33 57 18 31 1006.4 - 0.0
03/10:00am 7.4 -2.0 2.1 69 2.4 NNW 41 69 22 37 1006.9 - 0.0
03/09:30am 6.7 -3.4 1.6 70 2.2 NNW 44 69 24 37 1007.2 - 0.0
03/09:00am 7.1 -3.3 1.8 69 2.4 NNW 46 69 25 37 1007.5 1008.3 0.0
03/08:40am 6.6 -3.0 1.1 68 2.4 NNW 41 72 22 39 1007.2 - 0.0
03/08:39am 6.6 -3.0 1.1 68 2.4 NNW 41 72 22 39 1007.2 - 0.0
03/08:30am 6.7 -0.8 1.2 68 2.4 NNW 30 50 16 27 1007.6 - 0.0
03/08:00am 6.6 -1.9 1.1 68 2.4 NW 35 57 19 31 1007.8 - 0.0
03/07:30am 6.2 -3.4 1.1 70 2.2 NW 41 69 22 37 1007.3 - 0.0
03/07:00am 5.6 -3.6 1.2 73 1.9 NW 39 59 21 32 1007.3 - 0.0
03/06:30am 5.5 -4.1 1.4 75 1.8 NW 41 72 22 39 1008.0 - 0.0
03/06:00am 5.4 -3.0 1.5 76 1.7 NW 35 59 19 32 1008.0 1008.8 0.0
03/05:30am 5.2 -3.2 1.5 77 1.6 NW 35 56 19 30 1008.3 - 0.0
03/05:06am 5.2 -2.6 1.7 78 1.5 NW 32 57 17 31 1008.9 - 0.0
03/05:05am 5.2 -2.6 1.7 78 1.5 NW 32 57 17 31 1008.9 - 0.0
03/05:00am 5.2 -2.6 1.9 79 1.4 NW 32 48 17 26 1008.8 - 0.0
03/04:30am 5.4 -3.0 1.7 77 1.6 NW 35 56 19 30 1009.2 - 0.0
03/04:02am 5.2 -2.6 2.0 80 1.4 NW 32 52 17 28 1009.1 - 0.0
03/04:01am 5.2 -2.6 2.0 80 1.4 NW 32 52 17 28 1009.1 - 0.0
03/04:00am 4.9 -2.9 1.7 80 1.4 NW 32 48 17 26 1009.1 - 0.0
03/03:30am 5.1 -3.6 1.8 79 1.4 NW 37 59 20 32 1009.2 - 0.0
03/03:13am 5.3 -4.8 1.4 76 1.7 NW 44 65 24 35 1009.3 - 0.0
03/03:12am 5.3 -4.8 1.4 76 1.7 NW 44 65 24 35 1009.3 - 0.0
03/03:03am 5.2 -4.3 1.5 77 1.6 NW 41 59 22 32 1009.3 - 0.0
03/03:02am 5.2 -4.3 1.5 77 1.6 NW 41 59 22 32 1009.3 - 0.0
03/03:00am 5.2 -4.0 1.5 77 1.6 NW 39 59 21 32 1009.4 1010.2 0.0
03/02:30am 5.4 -3.8 1.5 76 1.7 NW 39 63 21 34 1009.8 - 0.0
03/02:00am 5.4 -4.2 1.3 75 1.8 NW 41 65 22 35 1009.7 - 0.0
03/01:30am 5.4 -2.1 1.5 76 1.7 NNW 30 57 16 31 1010.1 - 0.0
03/01:06am 5.4 -1.7 1.3 75 1.8 N 28 50 15 27 1010.2 - 0.0
03/01:00am 5.2 -1.6 1.0 74 1.8 NNW 26 50 14 27 1010.4 - 0.0
03/12:30am 5.1 -2.1 0.9 74 1.8 NNW 28 48 15 26 1010.4 - 0.0
03/12:00am 5.0 -3.0 0.6 73 1.9 NNW 32 52 17 28 1010.9 1011.8 0.0
 
Date/Time
EST
Temp
°C
App
Temp
°C
Dew
Point
Rel
Hum
%
Delta-T
°C
Wind Press
QNH
hPa
Press
MSL
hPa
Rain
since 9 am
mm
Dir
 
Spd
km/h
Gust
km/h
Spd
kts
Gust
kts
02/11:30pm 5.3 -2.7 0.7 72 1.9 NW 32 56 17 30 1011.4 - 0.0
02/11:14pm 5.1 -2.9 0.5 72 1.9 NNW 32 52 17 28 1011.5 - 0.0
02/11:13pm 5.1 -2.9 0.5 72 1.9 NNW 32 52 17 28 1011.5 - 0.0
02/11:00pm 5.0 -2.2 0.6 73 1.9 NW 28 44 15 24 1011.8 - 0.0
02/10:39pm 5.1 -2.4 1.0 75 1.7 NW 30 50 16 27 1011.8 - 0.0
02/10:38pm 5.1 -2.4 1.0 75 1.7 NW 30 50 16 27 1011.8 - 0.0
02/10:30pm 5.2 -2.0 1.0 74 1.8 NNW 28 44 15 24 1011.9 - 0.0
02/10:15pm 5.4 -1.8 0.6 71 2.0 NW 28 46 15 25 1011.9 - 0.0
02/10:14pm 5.4 -1.8 0.6 71 2.0 NW 28 46 15 25 1011.9 - 0.0
02/10:00pm 5.3 -2.7 0.5 71 2.0 NW 32 48 17 26 1012.2 - 0.0
02/09:45pm 5.0 -2.3 0.2 71 2.0 NW 28 56 15 30 1012.3 - 0.0
02/09:30pm 4.9 -1.9 0.5 73 1.8 NNW 26 46 14 25 1012.1 - 0.0
02/09:12pm 4.7 -1.0 0.5 74 1.8 NW 20 35 11 19 1012.5 - 0.0
02/09:11pm 4.7 -1.0 0.5 74 1.8 NW 20 35 11 19 1012.5 - 0.0
02/09:00pm 4.6 -2.2 0.6 75 1.7 NNW 26 37 14 20 1012.2 1013.2 0.0
02/08:55pm 4.7 -2.5 0.7 75 1.7 NW 28 37 15 20 1012.1 - 0.0
02/08:54pm 4.7 -2.5 0.7 75 1.7 NW 28 37 15 20 1012.1 - 0.0
02/08:33pm 4.7 -2.6 0.3 73 1.8 NW 28 46 15 25 1012.5 - 0.0
02/08:30pm 4.6 -1.5 0.4 74 1.8 NW 22 43 12 23 1012.5 - 0.0
02/08:00pm 4.2 -2.7 0.4 76 1.6 NW 26 43 14 23 1012.5 - 0.0
02/07:41pm 4.3 -2.9 0.6 77 1.5 WNW 28 46 15 25 1012.6 - 0.0
02/07:40pm 4.3 -2.9 0.6 77 1.5 WNW 28 46 15 25 1012.6 - 0.0
02/07:30pm 4.1 -3.1 0.8 79 1.4 NW 28 41 15 22 1012.5 - 0.0
02/07:00pm 4.3 -2.9 0.8 78 1.5 NW 28 46 15 25 1012.3 - 0.0
02/06:59pm 4.3 -2.9 0.8 78 1.5 NW 28 46 15 25 1012.3 - 0.0
02/06:52pm 4.3 -2.9 0.6 77 1.5 NW 28 41 15 22 1012.2 - 0.0
02/06:51pm 4.3 -2.9 0.6 77 1.5 NW 28 41 15 22 1012.2 - 0.0
02/06:33pm 4.0 -1.1 0.5 78 1.5 NW 17 35 9 19 1012.2 - 0.0
02/06:32pm 4.0 -1.1 0.5 78 1.5 NW 17 35 9 19 1012.2 - 0.0
02/06:30pm 4.2 -0.9 0.7 78 1.5 NNW 17 35 9 19 1012.1 - 0.0
02/06:00pm 4.0 -1.7 0.3 77 1.5 NW 20 39 11 21 1012.1 1013.1 0.0
02/05:30pm 3.9 -2.0 -0.5 73 1.8 NW 20 28 11 15 1011.8 - 0.0
02/05:00pm 4.5 0.2 -1.3 66 2.3 W 11 24 6 13 1011.8 - 0.0
02/04:30pm 5.7 1.5 -0.6 64 2.6 WNW 11 28 6 15 1012.1 - 0.0
02/04:00pm 5.6 -1.4 -0.2 66 2.4 W 26 37 14 20 1012.0 - 0.0
02/03:37pm 5.8 -1.6 -0.7 63 2.7 NW 28 48 15 26 1012.1 - 0.0
02/03:36pm 5.8 -1.6 -0.7 63 2.7 NW 28 48 15 26 1012.1 - 0.0
02/03:30pm 6.6 0.1 0.5 65 2.6 NW 24 41 13 22 1012.2 - 0.0
02/03:00pm 7.2 1.7 0.4 62 2.9 NW 19 35 10 19 1012.5 1013.4 0.0
02/02:30pm 6.0 0.4 -0.3 64 2.6 NNW 19 33 10 18 1012.8 - 0.0
02/02:00pm 4.9 -1.7 -0.7 67 2.3 NNW 24 44 13 24 1012.5 - 0.0
02/01:30pm 4.8 -0.9 -0.4 69 2.1 NNW 19 33 10 18 1012.9 - 0.0
02/01:00pm 4.8 -1.8 -0.6 68 2.2 NW 24 37 13 20 1013.1 - 0.0
02/12:30pm 4.8 -0.9 -0.8 67 2.3 NW 19 37 10 20 1013.4 - 0.0
02/12:00pm 4.4 -1.8 -0.4 71 2.0 NW 22 39 12 21 1013.8 1014.8 0.0
02/11:30am 4.5 -2.2 -1.1 67 2.3 NW 24 41 13 22 1014.3 - 0.0
02/11:00am 5.3 -1.3 -0.5 66 2.4 NNW 24 41 13 22 1014.4 - 0.0
02/10:30am 6.1 0.4 -0.4 63 2.7 NNW 19 35 10 19 1014.4 - 0.0
02/10:00am 5.0 -0.3 -0.8 66 2.4 N 17 35 9 19 1014.6 - 0.0
02/09:30am 6.1 0.9 0.4 67 2.4 NNW 17 24 9 13 1014.7 - 0.0
02/09:00am 4.1 -2.2 -1.3 68 2.2 NW 22 35 12 19 1014.6 1015.6 2.0
02/08:30am 3.3 -3.8 -1.4 71 1.9 NW 26 33 14 18 1014.4 - 2.0
02/08:00am 2.6 -5.4 -2.1 71 1.8 NW 30 37 16 20 1014.3 - 2.0
02/07:30am 2.0 -5.7 -2.7 71 1.8 NW 28 41 15 22 1013.9 - 2.0
02/07:00am 1.5 -5.1 -3.4 70 1.9 NW 22 43 12 23 1014.0 - 2.0
02/06:30am 1.1 -5.5 -3.7 70 1.8 NW 22 43 12 23 1013.9 - 2.0
02/06:00am 0.9 -4.8 -4.1 69 1.8 NW 17 28 9 15 1013.8 1014.8 2.0
02/05:30am 1.0 -3.9 -3.5 72 1.7 NW 13 28 7 15 1013.7 - 2.0
02/05:00am 0.6 -4.2 -2.6 79 1.2 NW 13 22 7 12 1013.7 - 2.0
02/04:30am 0.4 -4.0 -2.5 81 1.1 WNW 11 19 6 10 1013.7 - 2.0
02/04:00am 0.2 -3.8 -2.5 82 1.0 NW 9 15 5 8 1013.5 - 2.0
02/03:30am 1.1 -4.8 -2.1 79 1.3 NW 19 26 10 14 1013.5 - 2.0
02/03:00am 1.3 -4.7 -1.8 80 1.2 NW 20 30 11 16 1013.8 1014.8 2.0
02/02:42am 1.5 -3.9 -1.6 80 1.2 NW 17 32 9 17 1014.0 - 2.0
02/02:41am 1.5 -3.9 -1.6 80 1.2 NW 17 32 9 17 1014.0 - 2.0
02/02:30am 0.9 -4.2 -2.0 81 1.1 NW 15 20 8 11 1014.3 - 2.0
02/02:24am 1.0 -3.7 -1.9 81 1.2 NW 13 20 7 11 1014.3 - 2.0
02/02:23am 1.0 -3.7 -1.9 81 1.2 NW 13 20 7 11 1014.3 - 2.0
02/02:00am 1.1 -3.3 -2.1 79 1.3 NNW 11 17 6 9 1014.4 - 2.0
02/01:30am 1.3 -3.4 -1.8 80 1.2 NW 13 24 7 13 1014.5 - 2.0
02/01:00am 1.8 -2.8 -1.3 80 1.2 NW 13 19 7 10 1014.6 - 2.0
02/12:30am 1.9 -4.1 -1.5 78 1.3 NW 20 30 11 16 1014.8 - 2.0
02/12:25am 2.1 -3.9 -1.5 77 1.4 NW 20 30 11 16 1014.8 - 2.0
02/12:24am 2.1 -3.9 -1.5 77 1.4 NW 20 30 11 16 1014.8 - 2.0
02/12:12am 2.0 -3.4 -1.4 78 1.3 NW 17 26 9 14 1014.9 - 2.0
02/12:11am 2.0 -3.4 -1.4 78 1.3 NW 17 26 9 14 1014.9 - 2.0
02/12:00am 1.9 -3.1 -1.2 80 1.2 NW 15 24 8 13 1015.1 1016.1 2.0
 
Date/Time
EST
Temp
°C
App
Temp
°C
Dew
Point
Rel
Hum
%
Delta-T
°C
Wind Press
QNH
hPa
Press
MSL
hPa
Rain
since 9 am
mm
Dir
 
Spd
km/h
Gust
km/h
Spd
kts
Gust
kts
01/11:43pm 2.3 -3.1 -1.1 78 1.3 NW 17 26 9 14 1015.1 - 2.0
01/11:42pm 2.3 -3.1 -1.1 78 1.3 NW 17 26 9 14 1015.1 - 2.0
01/11:30pm 2.2 -3.2 -1.2 78 1.3 NW 17 28 9 15 1015.2 - 2.0
01/11:24pm 2.2 -3.2 -1.2 78 1.3 NW 17 28 9 15 1015.2 - 2.0
01/11:23pm 2.2 -3.2 -1.2 78 1.3 NW 17 28 9 15 1015.2 - 2.0
01/11:00pm 2.3 -2.0 -1.3 77 1.4 WNW 11 20 6 11 1015.4 - 2.0
01/10:30pm 3.1 -2.2 -0.7 76 1.5 WNW 17 32 9 17 1015.5 - 2.0
01/10:00pm 3.1 -2.2 -0.9 75 1.6 WNW 17 24 9 13 1015.6 - 2.0
01/09:30pm 3.0 -1.6 -0.8 76 1.5 NW 13 20 7 11 1015.5 - 2.0
01/09:00pm 2.9 -1.7 -0.9 76 1.5 WNW 13 26 7 14 1015.2 1016.2 2.0
01/08:30pm 3.0 -2.8 -1.2 74 1.7 WNW 19 33 10 18 1014.8 - 2.0
01/08:00pm 3.0 -1.5 -0.6 77 1.4 WNW 13 22 7 12 1014.6 - 2.0
01/07:30pm 3.0 -2.9 -0.8 76 1.5 WNW 20 32 11 17 1014.3 - 2.0
01/07:12pm 3.6 -3.8 -0.4 75 1.6 WNW 28 46 15 25 1013.8 - 2.0
01/07:11pm 3.6 -3.8 -0.4 75 1.6 WNW 28 46 15 25 1013.8 - 2.0
01/07:00pm 3.5 -2.2 0.6 81 1.2 WNW 20 32 11 17 1013.7 - 2.0
01/06:30pm 3.7 -3.4 1.3 84 1.0 WNW 28 44 15 24 1013.1 - 2.0
01/06:00pm 3.4 -4.1 1.1 85 1.0 WNW 30 44 16 24 1012.5 1013.4 2.0
01/05:34pm 3.5 -3.6 1.5 87 0.8 WNW 28 50 15 27 1012.0 - 2.0
01/05:33pm 3.5 -3.6 1.5 87 0.8 WNW 28 50 15 27 1012.0 - 2.0

Other Formats:

Comma delimited format used in spreadsheet applications
http://www.bom.gov.au/fwo/IDV60801/IDV60801.94905.axf

JavaScript Object Notation format (JSON) in row-major order
http://www.bom.gov.au/fwo/IDV60801/IDV60801.94905.json